createdAt,value
2023-05-09T00:01:13.242Z,7.63
2023-05-09T00:03:40.524Z,7.82
2023-05-09T00:06:07.268Z,8.45
2023-05-09T00:08:33.686Z,8.30
2023-05-09T00:11:00.846Z,8.68
2023-05-09T00:13:27.577Z,8.68
2023-05-09T00:15:54.061Z,8.68
2023-05-09T00:18:22.016Z,8.95
2023-05-09T00:20:50.038Z,8.85
2023-05-09T00:23:16.782Z,10.25
2023-05-09T00:25:43.399Z,10.10
2023-05-09T00:28:09.852Z,9.70
2023-05-09T00:30:36.774Z,9.25
2023-05-09T00:33:03.301Z,10.32
2023-05-09T00:35:32.124Z,11.40
2023-05-09T00:37:59.371Z,10.82
2023-05-09T00:40:25.998Z,10.10
2023-05-09T00:42:52.456Z,10.27
2023-05-09T00:45:18.909Z,10.75
2023-05-09T00:47:45.580Z,11.10
2023-05-09T00:50:12.109Z,11.00
2023-05-09T00:52:38.959Z,11.82
2023-05-09T00:55:08.207Z,11.68
2023-05-09T00:57:35.063Z,11.07
2023-05-09T01:00:01.760Z,10.55
2023-05-09T01:02:28.641Z,10.63
2023-05-09T01:04:55.928Z,11.50
2023-05-09T01:07:37.579Z,11.25
2023-05-09T01:10:16.894Z,10.82
2023-05-09T01:12:56.029Z,11.35
2023-05-09T01:15:39.339Z,10.90
2023-05-09T01:18:43.149Z,11.75
2023-05-09T01:21:20.556Z,12.82
2023-05-09T01:23:59.331Z,11.73
2023-05-09T01:26:43.281Z,12.05
2023-05-09T01:29:34.476Z,12.10
2023-05-09T01:32:07.239Z,11.82
2023-05-09T01:34:35.304Z,12.68
2023-05-09T01:37:05.096Z,12.80
2023-05-09T01:39:33.819Z,11.52
2023-05-09T01:42:02.600Z,12.40
2023-05-09T01:44:42.992Z,11.93
2023-05-09T01:47:10.660Z,11.68
2023-05-09T01:49:38.547Z,13.23
2023-05-09T01:52:11.275Z,14.45
2023-05-09T01:54:40.079Z,12.98
2023-05-09T01:57:08.013Z,13.38
2023-05-09T01:59:35.935Z,12.38
2023-05-09T02:02:07.758Z,12.05
2023-05-09T02:04:35.732Z,11.98
2023-05-09T02:07:05.199Z,11.68
2023-05-09T02:09:31.869Z,13.38
2023-05-09T02:11:58.303Z,11.25
2023-05-09T02:14:24.725Z,12.00
2023-05-09T02:16:51.302Z,11.32
2023-05-09T02:19:17.819Z,11.82
2023-05-09T02:21:44.436Z,11.63
2023-05-09T02:24:11.224Z,11.00
2023-05-09T02:26:39.125Z,12.77
2023-05-09T02:29:07.596Z,13.07
2023-05-09T02:31:35.376Z,12.30
2023-05-09T02:34:04.699Z,12.45
2023-05-09T02:36:32.626Z,12.40
2023-05-09T02:39:01.165Z,12.05
2023-05-09T02:41:30.034Z,12.30
2023-05-09T02:43:56.454Z,11.88
2023-05-09T02:46:23.025Z,10.80
2023-05-09T02:48:49.444Z,11.05
2023-05-09T02:51:15.990Z,11.43
2023-05-09T02:53:42.512Z,11.38
2023-05-09T02:56:10.745Z,12.77
2023-05-09T02:58:37.158Z,12.57
2023-05-09T03:01:04.069Z,12.73
2023-05-09T03:03:34.201Z,12.63
2023-05-09T03:06:03.273Z,13.73
2023-05-09T03:08:29.992Z,12.70
2023-05-09T03:10:57.053Z,13.57
2023-05-09T03:13:23.760Z,14.45
2023-05-09T03:15:50.297Z,13.13
2023-05-09T03:18:17.302Z,20.45
2023-05-09T03:20:43.728Z,19.88
2023-05-09T03:23:10.357Z,21.55
2023-05-09T03:25:37.039Z,19.58
2023-05-09T03:28:05.664Z,22.05
2023-05-09T03:30:32.079Z,27.10
2023-05-09T03:32:59.056Z,28.95
2023-05-09T03:35:25.650Z,29.65
2023-05-09T03:37:53.780Z,29.27
2023-05-09T03:40:20.556Z,32.30
2023-05-09T03:42:53.369Z,34.95
2023-05-09T03:45:20.027Z,35.35
2023-05-09T03:47:47.309Z,36.45
2023-05-09T03:50:15.146Z,37.13
2023-05-09T03:52:43.161Z,36.50
2023-05-09T03:55:10.778Z,37.33
2023-05-09T03:57:37.329Z,35.53
2023-05-09T04:00:06.620Z,36.97
2023-05-09T04:02:40.492Z,37.60
2023-05-09T04:05:08.559Z,37.50
2023-05-09T04:07:37.297Z,38.08
2023-05-09T04:10:05.128Z,34.53
2023-05-09T04:12:32.009Z,35.47
2023-05-09T04:14:58.676Z,36.53
2023-05-09T04:17:25.322Z,35.13
2023-05-09T04:19:52.217Z,34.00
2023-05-09T04:22:19.123Z,35.65
2023-05-09T04:24:45.626Z,39.55
2023-05-09T04:27:12.060Z,35.03
2023-05-09T04:29:39.111Z,33.70
2023-05-09T04:32:05.654Z,35.75
2023-05-09T04:34:32.333Z,33.00
2023-05-09T04:37:03.776Z,33.30
2023-05-09T04:39:30.934Z,34.65
2023-05-09T04:42:05.980Z,33.65
2023-05-09T04:44:33.207Z,37.33
2023-05-09T04:47:00.221Z,36.55
2023-05-09T04:49:27.605Z,36.97
2023-05-09T04:51:54.057Z,36.60
2023-05-09T04:54:21.273Z,37.35
2023-05-09T04:56:50.845Z,36.65
2023-05-09T04:59:18.056Z,35.67
2023-05-09T05:01:45.787Z,35.75
2023-05-09T05:04:13.035Z,35.85
2023-05-09T05:06:40.285Z,38.30
2023-05-09T05:09:06.988Z,38.58
2023-05-09T05:11:33.448Z,36.63
2023-05-09T05:14:00.077Z,36.78
2023-05-09T05:16:26.765Z,37.28
2023-05-09T05:18:53.266Z,35.25
2023-05-09T05:21:20.805Z,35.83
2023-05-09T05:23:48.281Z,34.03
2023-05-09T05:26:15.601Z,33.70
2023-05-09T05:28:42.358Z,32.72
2023-05-09T05:31:08.807Z,33.15
2023-05-09T05:33:35.273Z,32.58
2023-05-09T05:36:02.392Z,32.17
2023-05-09T05:38:29.349Z,32.63
2023-05-09T05:40:57.298Z,30.42
2023-05-09T05:43:25.295Z,27.83
2023-05-09T05:45:51.832Z,26.70
2023-05-09T05:48:21.891Z,27.83
2023-05-09T05:50:48.291Z,26.45
2023-05-09T05:53:17.536Z,27.60
2023-05-09T05:55:45.835Z,25.63
2023-05-09T05:58:12.613Z,25.27
2023-05-09T06:00:39.898Z,25.33
2023-05-09T06:03:08.583Z,26.20
2023-05-09T06:05:49.631Z,22.17
2023-05-09T06:08:16.136Z,24.15
2023-05-09T06:10:42.521Z,22.45
2023-05-09T06:13:08.977Z,23.73
2023-05-09T06:15:38.401Z,22.67
2023-05-09T06:18:04.944Z,23.63
2023-05-09T06:20:31.442Z,23.27
2023-05-09T06:22:58.230Z,24.02
2023-05-09T06:25:24.945Z,24.30
2023-05-09T06:27:51.328Z,23.75
2023-05-09T06:30:26.282Z,24.02
2023-05-09T06:32:54.336Z,24.60
2023-05-09T06:35:20.828Z,24.33
2023-05-09T06:37:48.780Z,25.17
2023-05-09T06:40:16.557Z,23.52
2023-05-09T06:42:43.079Z,26.52
2023-05-09T06:45:09.988Z,28.08
2023-05-09T06:47:36.510Z,30.08
2023-05-09T06:50:03.644Z,29.50
2023-05-09T06:52:30.194Z,28.45
2023-05-09T06:54:56.561Z,28.13
2023-05-09T06:57:23.177Z,29.48
2023-05-09T06:59:49.579Z,32.92
2023-05-09T07:02:16.201Z,32.53
2023-05-09T07:04:43.189Z,27.25
2023-05-09T07:07:09.936Z,30.45
2023-05-09T07:09:36.861Z,28.67
2023-05-09T07:12:04.074Z,24.10
2023-05-09T07:14:30.908Z,24.00
2023-05-09T07:17:09.869Z,22.75
2023-05-09T07:19:43.644Z,25.27
2023-05-09T07:22:10.026Z,21.88
2023-05-09T07:24:36.461Z,12.23
2023-05-09T07:27:03.768Z,13.13
2023-05-09T07:29:30.159Z,16.88
2023-05-09T07:31:56.567Z,13.52
2023-05-09T07:34:25.180Z,16.15
2023-05-09T07:36:51.650Z,17.45
2023-05-09T07:39:18.068Z,17.60
2023-05-09T07:41:44.457Z,16.42
2023-05-09T07:44:11.015Z,18.23
2023-05-09T07:46:38.423Z,16.50
2023-05-09T07:49:04.833Z,21.63
2023-05-09T07:51:32.081Z,20.63
2023-05-09T07:53:58.470Z,18.10
2023-05-09T07:56:26.327Z,21.98
2023-05-09T07:58:54.960Z,18.13
2023-05-09T08:01:22.067Z,19.75
2023-05-09T08:03:48.600Z,18.40
2023-05-09T08:06:15.527Z,18.92
2023-05-09T08:08:41.907Z,18.30
2023-05-09T08:11:08.345Z,18.73
2023-05-09T08:13:35.050Z,16.23
2023-05-09T08:16:02.201Z,15.38
2023-05-09T08:18:28.631Z,15.82
2023-05-09T08:20:55.236Z,15.82
2023-05-09T08:23:21.698Z,14.15
2023-05-09T08:25:52.238Z,14.82
2023-05-09T08:28:19.064Z,13.55
2023-05-09T08:30:45.434Z,14.88
2023-05-09T08:33:11.835Z,12.27
2023-05-09T08:35:38.307Z,12.70
2023-05-09T08:38:04.909Z,11.07
2023-05-09T08:40:35.897Z,10.52
2023-05-09T08:43:06.013Z,10.25
2023-05-09T08:45:45.319Z,10.63
2023-05-09T08:48:12.940Z,7.63
2023-05-09T08:50:40.214Z,7.32
2023-05-09T08:53:06.976Z,8.32
2023-05-09T08:55:33.396Z,7.95
2023-05-09T08:58:00.629Z,7.35
2023-05-09T09:00:28.338Z,8.63
2023-05-09T09:02:56.980Z,8.05
2023-05-09T09:05:40.073Z,7.60
2023-05-09T09:08:09.314Z,7.35
2023-05-09T09:10:39.168Z,6.70
2023-05-09T09:13:06.079Z,7.15
2023-05-09T09:15:36.956Z,6.85
2023-05-09T09:18:09.780Z,7.45
2023-05-09T09:20:44.849Z,6.82
2023-05-09T09:23:13.649Z,6.07
2023-05-09T09:25:40.118Z,4.90
2023-05-09T09:28:06.663Z,4.68
2023-05-09T09:30:33.242Z,5.22
2023-05-09T09:33:00.224Z,4.47
2023-05-09T09:35:26.644Z,4.50
2023-05-09T09:38:00.446Z,4.80
2023-05-09T09:40:26.867Z,4.00
2023-05-09T09:42:53.262Z,4.63
2023-05-09T09:45:20.407Z,4.05
2023-05-09T09:47:48.482Z,3.53
2023-05-09T09:50:17.751Z,3.42
2023-05-09T09:52:56.075Z,3.88
2023-05-09T09:55:24.191Z,3.65
2023-05-09T09:57:51.475Z,3.38
2023-05-09T10:00:28.395Z,3.58
2023-05-09T10:02:56.866Z,4.20
2023-05-09T10:05:24.307Z,3.28
2023-05-09T10:08:01.904Z,3.33
2023-05-09T10:10:36.041Z,2.97
2023-05-09T10:13:10.656Z,2.47
2023-05-09T10:15:52.253Z,2.50
2023-05-09T10:18:27.263Z,2.80
2023-05-09T10:20:54.923Z,2.95
2023-05-09T10:23:23.982Z,2.67
2023-05-09T10:26:02.080Z,3.83
2023-05-09T10:28:31.936Z,2.83
2023-05-09T10:31:12.045Z,2.22
2023-05-09T10:33:48.876Z,2.40
2023-05-09T10:36:17.412Z,2.67
2023-05-09T10:38:44.769Z,2.30
2023-05-09T10:41:12.150Z,2.03
2023-05-09T10:43:39.812Z,2.30
2023-05-09T10:46:06.994Z,2.63
2023-05-09T10:48:33.942Z,2.45
2023-05-09T10:51:02.186Z,2.30
2023-05-09T10:53:40.396Z,2.78
2023-05-09T10:56:07.178Z,2.83
2023-05-09T10:58:36.229Z,2.70
2023-05-09T11:01:04.501Z,2.00
2023-05-09T11:03:54.415Z,1.95
2023-05-09T11:06:43.873Z,2.55
2023-05-09T11:09:37.117Z,2.67
2023-05-09T11:12:15.937Z,2.50
2023-05-09T11:14:44.686Z,2.67
2023-05-09T11:17:15.039Z,2.70
2023-05-09T11:19:47.598Z,2.75
2023-05-09T11:22:15.121Z,2.80
2023-05-09T11:24:47.131Z,2.70
2023-05-09T11:27:30.990Z,4.00
2023-05-09T11:29:59.322Z,4.13
2023-05-09T11:32:32.179Z,4.13
2023-05-09T11:35:09.402Z,3.90
2023-05-09T11:37:48.257Z,3.53
2023-05-09T11:40:17.286Z,4.30
2023-05-09T11:42:49.235Z,4.00
2023-05-09T11:45:17.375Z,3.60
2023-05-09T11:47:46.106Z,3.45
2023-05-09T11:50:14.407Z,3.70
2023-05-09T11:52:41.804Z,3.20
2023-05-09T11:55:12.535Z,4.15
2023-05-09T11:57:41.064Z,3.42
2023-05-09T12:00:10.258Z,3.72
2023-05-09T12:02:37.559Z,4.30
2023-05-09T12:05:13.024Z,3.80
2023-05-09T12:07:40.448Z,3.67
2023-05-09T12:10:12.670Z,5.00
2023-05-09T12:12:44.518Z,3.53
2023-05-09T12:15:13.227Z,4.32
2023-05-09T12:17:44.176Z,5.07
2023-05-09T12:20:11.088Z,4.30
2023-05-09T12:22:37.717Z,5.72
2023-05-09T12:25:10.054Z,5.50
2023-05-09T12:27:38.690Z,5.33
2023-05-09T12:30:15.882Z,7.20
2023-05-09T12:32:43.507Z,7.03
2023-05-09T12:35:10.605Z,7.05
2023-05-09T12:37:37.560Z,6.80
2023-05-09T12:40:07.065Z,6.97
2023-05-09T12:42:35.152Z,6.43
2023-05-09T12:45:03.046Z,6.68
2023-05-09T12:47:31.600Z,7.82
2023-05-09T12:50:02.836Z,6.90
2023-05-09T12:52:54.056Z,7.60
2023-05-09T12:55:25.245Z,8.70
2023-05-09T12:58:03.166Z,7.60
2023-05-09T13:00:42.119Z,9.00
2023-05-09T13:03:31.353Z,9.35
2023-05-09T13:06:02.043Z,9.13
2023-05-09T13:08:29.424Z,9.45
2023-05-09T13:11:07.785Z,9.52
2023-05-09T13:13:34.717Z,9.20
2023-05-09T13:16:04.109Z,11.60
2023-05-09T13:18:30.695Z,10.75
2023-05-09T13:20:57.151Z,9.98
2023-05-09T13:23:24.052Z,10.45
2023-05-09T13:25:51.343Z,12.60
2023-05-09T13:28:17.738Z,10.88
2023-05-09T13:30:45.639Z,11.15
2023-05-09T13:33:24.671Z,11.48
2023-05-09T13:35:52.624Z,12.45
2023-05-09T13:38:19.044Z,12.60
2023-05-09T13:40:45.710Z,11.30
2023-05-09T13:43:12.091Z,13.05
2023-05-09T13:45:38.755Z,13.43
2023-05-09T13:48:05.346Z,13.35
2023-05-09T13:50:31.738Z,13.57
2023-05-09T13:52:58.537Z,14.23
2023-05-09T13:55:26.875Z,13.32
2023-05-09T13:57:53.374Z,13.80
2023-05-09T14:00:21.210Z,13.40
2023-05-09T14:02:48.141Z,11.88
2023-05-09T14:05:16.898Z,13.15
2023-05-09T14:07:43.504Z,13.77
2023-05-09T14:10:12.093Z,12.48
2023-05-09T14:12:39.919Z,12.23
2023-05-09T14:15:07.671Z,11.38
2023-05-09T14:17:34.164Z,12.25
2023-05-09T14:20:00.857Z,13.05
2023-05-09T14:22:28.101Z,12.25
2023-05-09T14:24:56.455Z,13.23
2023-05-09T14:27:22.968Z,11.20
2023-05-09T14:29:49.557Z,10.93
2023-05-09T14:32:16.023Z,9.73
2023-05-09T14:34:42.450Z,8.65
2023-05-09T14:37:13.576Z,6.65
2023-05-09T14:39:42.473Z,6.15
2023-05-09T14:42:11.233Z,5.60
2023-05-09T14:44:38.495Z,6.15
2023-05-09T14:47:05.043Z,4.85
2023-05-09T14:49:31.886Z,5.35
2023-05-09T14:51:58.310Z,5.22
2023-05-09T14:54:24.899Z,5.00
2023-05-09T14:56:51.705Z,5.45
2023-05-09T14:59:18.169Z,5.47
2023-05-09T15:01:45.553Z,5.00
2023-05-09T15:04:12.098Z,5.30
2023-05-09T15:06:39.524Z,4.80
2023-05-09T15:09:06.141Z,5.38
2023-05-09T15:11:46.259Z,5.07
2023-05-09T15:14:13.749Z,5.03
2023-05-09T15:16:40.496Z,4.72
2023-05-09T15:19:08.226Z,4.45
2023-05-09T15:21:35.040Z,4.10
2023-05-09T15:24:02.201Z,4.20
2023-05-09T15:26:29.125Z,4.18
2023-05-09T15:28:55.500Z,4.00
2023-05-09T15:31:23.326Z,3.95
2023-05-09T15:33:49.752Z,3.90
2023-05-09T15:36:16.348Z,3.75
2023-05-09T15:38:48.134Z,3.92
2023-05-09T15:41:15.262Z,3.63
2023-05-09T15:43:42.175Z,3.83
2023-05-09T15:46:08.880Z,3.25
2023-05-09T15:48:35.495Z,3.35
2023-05-09T15:51:02.527Z,3.75
2023-05-09T15:53:29.293Z,3.33
2023-05-09T15:55:56.882Z,3.40
2023-05-09T15:58:23.449Z,3.20
2023-05-09T16:00:50.018Z,3.50
2023-05-09T16:03:16.700Z,3.60
2023-05-09T16:05:43.962Z,3.72
2023-05-09T16:08:11.012Z,4.07
2023-05-09T16:10:37.430Z,3.17
2023-05-09T16:13:04.371Z,3.60
2023-05-09T16:15:30.797Z,3.50
2023-05-09T16:17:57.268Z,3.33
2023-05-09T16:20:23.693Z,2.80
2023-05-09T16:22:50.119Z,3.40
2023-05-09T16:25:16.662Z,3.10
2023-05-09T16:27:43.141Z,3.20
2023-05-09T16:30:10.183Z,2.70
2023-05-09T16:32:36.813Z,2.83
2023-05-09T16:35:04.110Z,2.67
2023-05-09T16:37:30.515Z,2.83
2023-05-09T16:39:57.860Z,2.83
2023-05-09T16:42:24.228Z,2.80
2023-05-09T16:44:50.923Z,2.17
2023-05-09T16:47:17.302Z,1.90
2023-05-09T16:49:43.744Z,1.27
2023-05-09T16:52:10.158Z,0.77
2023-05-09T16:54:36.530Z,0.68
2023-05-09T16:57:03.217Z,0.70
2023-05-09T16:59:29.667Z,0.63
2023-05-09T17:01:57.567Z,0.70
2023-05-09T17:04:25.177Z,0.80
2023-05-09T17:06:51.981Z,0.52
2023-05-09T17:09:18.582Z,0.50
2023-05-09T17:11:45.044Z,0.40
2023-05-09T17:14:11.440Z,0.50
2023-05-09T17:16:38.287Z,0.70
2023-05-09T17:19:04.992Z,0.60
2023-05-09T17:21:32.065Z,0.60
2023-05-09T17:23:58.543Z,0.65
2023-05-09T17:26:25.741Z,0.82
2023-05-09T17:28:52.147Z,0.70
2023-05-09T17:31:18.806Z,0.80
2023-05-09T17:33:45.373Z,0.63
2023-05-09T17:36:11.764Z,0.90
2023-05-09T17:38:38.249Z,1.40
2023-05-09T17:41:04.870Z,1.10
2023-05-09T17:43:31.859Z,0.90
2023-05-09T17:45:58.803Z,0.90
2023-05-09T17:48:25.416Z,1.10
2023-05-09T17:50:52.598Z,0.90
2023-05-09T17:53:19.105Z,0.80
2023-05-09T17:55:45.649Z,1.10
2023-05-09T17:58:13.887Z,1.10
2023-05-09T18:00:40.712Z,1.00
2023-05-09T18:03:08.846Z,1.13
2023-05-09T18:05:35.299Z,1.00
2023-05-09T18:08:03.367Z,1.20
2023-05-09T18:10:29.990Z,1.30
2023-05-09T18:12:56.882Z,1.20
2023-05-09T18:15:24.417Z,1.30
2023-05-09T18:17:50.954Z,1.42
2023-05-09T18:20:17.868Z,1.25
2023-05-09T18:22:44.503Z,1.60
2023-05-09T18:25:11.296Z,1.50
2023-05-09T18:27:38.225Z,1.50
2023-05-09T18:30:05.036Z,1.38
2023-05-09T18:32:32.185Z,1.70
2023-05-09T18:34:58.650Z,1.80
2023-05-09T18:37:25.481Z,1.48
2023-05-09T18:39:51.891Z,1.80
2023-05-09T18:42:18.375Z,1.92
2023-05-09T18:44:44.874Z,2.00
2023-05-09T18:47:11.926Z,1.63
2023-05-09T18:49:38.777Z,1.52
2023-05-09T18:52:05.159Z,1.85
2023-05-09T18:54:32.109Z,1.58
2023-05-09T18:56:59.005Z,1.50
2023-05-09T18:59:25.450Z,2.08
2023-05-09T19:01:51.919Z,2.42
2023-05-09T19:04:19.341Z,2.92
2023-05-09T19:06:46.598Z,2.70
2023-05-09T19:09:13.016Z,2.70
2023-05-09T19:11:39.395Z,2.70
2023-05-09T19:14:05.841Z,3.38
2023-05-09T19:16:32.392Z,3.50
2023-05-09T19:18:59.057Z,3.60
2023-05-09T19:21:25.538Z,3.60
2023-05-09T19:23:52.361Z,3.75
2023-05-09T19:26:19.776Z,4.35
2023-05-09T19:28:46.837Z,4.13
2023-05-09T19:31:14.730Z,3.90
2023-05-09T19:33:42.702Z,4.28
2023-05-09T19:36:09.187Z,4.75
2023-05-09T19:38:35.893Z,4.60
2023-05-09T19:41:02.358Z,4.50
2023-05-09T19:43:28.806Z,4.85
2023-05-09T19:45:55.247Z,4.32
2023-05-09T19:48:21.756Z,3.92
2023-05-09T19:50:48.182Z,3.38
2023-05-09T19:53:14.829Z,3.10
2023-05-09T19:55:43.695Z,2.80
2023-05-09T19:58:10.130Z,2.15
2023-05-09T20:00:38.644Z,2.63
2023-05-09T20:03:05.071Z,2.85
2023-05-09T20:05:31.503Z,2.25
2023-05-09T20:07:57.910Z,1.80
2023-05-09T20:10:24.338Z,1.52
2023-05-09T20:12:50.854Z,1.50
2023-05-09T20:15:17.676Z,1.40
2023-05-09T20:17:44.511Z,1.45
2023-05-09T20:20:11.550Z,1.13
2023-05-09T20:22:38.052Z,1.40
2023-05-09T20:25:05.165Z,1.40
2023-05-09T20:27:31.661Z,1.67
2023-05-09T20:29:58.054Z,1.42
2023-05-09T20:32:24.545Z,1.80
2023-05-09T20:34:50.964Z,2.55
2023-05-09T20:37:17.382Z,2.45
2023-05-09T20:39:44.034Z,2.90
2023-05-09T20:42:10.677Z,2.88
2023-05-09T20:44:39.095Z,2.45
2023-05-09T20:47:05.795Z,2.13
2023-05-09T20:49:32.286Z,2.42
2023-05-09T20:51:58.647Z,2.35
2023-05-09T20:54:25.788Z,2.50
2023-05-09T20:56:52.208Z,2.40
2023-05-09T20:59:18.697Z,3.20
2023-05-09T21:01:45.199Z,2.70
2023-05-09T21:04:11.624Z,3.00
2023-05-09T21:06:38.582Z,3.40
2023-05-09T21:09:09.267Z,3.50
2023-05-09T21:11:37.117Z,3.22
2023-05-09T21:14:03.862Z,3.00
2023-05-09T21:16:30.675Z,2.95
2023-05-09T21:18:58.520Z,3.13
2023-05-09T21:21:24.963Z,3.67
2023-05-09T21:23:51.382Z,4.03
2023-05-09T21:26:18.338Z,3.60
2023-05-09T21:28:44.718Z,4.60
2023-05-09T21:31:11.689Z,4.00
2023-05-09T21:33:38.481Z,4.43
2023-05-09T21:36:05.047Z,5.50
2023-05-09T21:38:31.464Z,5.63
2023-05-09T21:40:58.276Z,5.00
2023-05-09T21:43:24.663Z,5.90
2023-05-09T21:45:51.043Z,6.03
2023-05-09T21:48:17.583Z,6.20
2023-05-09T21:50:45.891Z,6.22
2023-05-09T21:53:12.945Z,6.22
2023-05-09T21:55:39.329Z,6.55
2023-05-09T21:58:05.766Z,6.15
2023-05-09T22:00:32.136Z,7.07
2023-05-09T22:02:58.965Z,8.88
2023-05-09T22:05:25.526Z,8.90
2023-05-09T22:07:51.920Z,9.55
2023-05-09T22:10:18.980Z,8.63
2023-05-09T22:12:45.833Z,8.80
2023-05-09T22:15:12.713Z,8.65
2023-05-09T22:17:39.607Z,8.30
2023-05-09T22:20:06.990Z,9.48
2023-05-09T22:22:33.904Z,8.35
2023-05-09T22:25:00.415Z,8.82
2023-05-09T22:27:26.789Z,9.88
2023-05-09T22:29:53.691Z,9.57
2023-05-09T22:32:20.111Z,10.80
2023-05-09T22:34:48.070Z,10.02
2023-05-09T22:37:15.349Z,9.70
2023-05-09T22:39:45.575Z,9.90
2023-05-09T22:42:12.089Z,9.77
2023-05-09T22:44:39.304Z,8.98
2023-05-09T22:47:07.665Z,9.38
2023-05-09T22:49:34.110Z,9.07
2023-05-09T22:52:00.857Z,9.07
2023-05-09T22:54:27.279Z,8.90
2023-05-09T22:56:53.765Z,9.05
2023-05-09T22:59:20.328Z,10.30
2023-05-09T23:01:47.786Z,10.35
2023-05-09T23:04:14.182Z,11.43
2023-05-09T23:06:40.708Z,11.80
2023-05-09T23:09:07.758Z,11.32
2023-05-09T23:11:34.109Z,11.75
2023-05-09T23:14:00.526Z,12.55
2023-05-09T23:16:27.142Z,12.82
2023-05-09T23:18:54.250Z,12.10
2023-05-09T23:21:20.636Z,12.65
2023-05-09T23:23:47.200Z,12.57
2023-05-09T23:26:13.860Z,12.15
2023-05-09T23:28:40.395Z,11.35
2023-05-09T23:31:06.847Z,12.20
2023-05-09T23:33:33.383Z,11.50
2023-05-09T23:35:59.877Z,12.90
2023-05-09T23:38:26.344Z,13.30
2023-05-09T23:40:53.769Z,14.10
2023-05-09T23:43:20.154Z,12.32
2023-05-09T23:45:46.732Z,13.70
2023-05-09T23:48:13.130Z,13.00
2023-05-09T23:50:39.554Z,13.93
2023-05-09T23:53:06.403Z,14.25
2023-05-09T23:55:33.213Z,14.27
2023-05-09T23:58:00.631Z,12.93
